RJNG(METAR)
06/28 22:00
METAR RJNG 281300Z VRB01KT 9999 FEW030 SCT/// 23/20 Q1013 RMK 1CU030
A2993=
戻る
トップページへ戻る
IMOC Co,.Ltd.